Time;durP1;ratioP1;P1;durP2;ratioP2;P2;SDS_P1;SDS_P2;PMS_P1;PMS_P2;Temp;Humidity;BMP_temperature;BMP_pressure;BME280_temperature;BME280_humidity;BME280_pressure;Samples;Min_cycle;Max_cycle;Signal;HPM_P1;HPM_P2
2022/01/28 00:00:11;;;;;;;7.95;2.72;;;;;;;7.13;68.07;101371.69;5114576;27;20054;-60
2022/01/28 00:02:51;;;;;;;7.82;2.08;;;;;;;7.11;66.99;101371.13;5116300;27;20055;-58
2022/01/28 00:05:21;;;;;;;12.73;2.72;;;;;;;7.11;67.15;101380.28;5123868;27;20058;-60
2022/01/28 00:07:50;;;;;;;8.77;2.47;;;;;;;7.20;67.59;101375.09;5131847;27;20371;-60
2022/01/28 00:10:19;;;;;;;8.60;2.30;;;;;;;7.17;67.73;101375.59;5121230;27;20044;-60
2022/01/28 00:13:09;;;;;;;9.15;2.35;;;;;;;7.14;67.22;101378.94;5113230;28;20055;-60
2022/01/28 00:15:46;;;;;;;6.25;2.28;;;;;;;7.08;66.75;101388.31;5112890;28;20048;-60
2022/01/28 00:18:43;;;;;;;9.00;2.83;;;;;;;7.05;66.75;101388.81;5124229;27;20055;-60
2022/01/28 00:40:34;;;;;;;10.38;2.38;;;;;;;7.12;67.36;101419.91;5110225;27;20505;-58
2022/01/28 00:43:03;;;;;;;11.75;2.75;;;;;;;7.19;67.19;101428.00;5132229;27;20066;-61
2022/01/28 00:45:30;;;;;;;11.52;2.65;;;;;;;7.22;67.10;101438.53;5124197;27;20052;-61
2022/01/28 00:47:59;;;;;;;12.23;3.10;;;;;;;7.18;66.87;101435.47;5113133;28;20063;-60
2022/01/28 00:50:27;;;;;;;11.13;2.83;;;;;;;7.19;67.78;101436.28;5112289;28;20063;-54
2022/01/28 00:52:55;;;;;;;9.73;2.70;;;;;;;7.29;67.26;101450.22;5113350;27;20046;-58
2022/01/28 00:55:22;;;;;;;9.70;2.47;;;;;;;7.39;66.62;101444.72;5123247;27;20051;-56
2022/01/28 00:57:51;;;;;;;7.78;2.40;;;;;;;7.38;67.32;101453.31;5112301;28;20059;-59
2022/01/28 01:00:19;;;;;;;8.15;2.30;;;;;;;7.40;67.75;101457.47;5110913;28;20518;-55
2022/01/28 01:02:47;;;;;;;8.35;2.47;;;;;;;7.48;68.15;101458.91;5111616;28;20063;-58
2022/01/28 01:05:14;;;;;;;6.75;2.15;;;;;;;7.50;66.69;101457.53;5113049;27;20058;-59
2022/01/28 01:07:41;;;;;;;9.48;2.75;;;;;;;7.48;66.75;101467.22;5132852;27;20051;-60
2022/01/28 01:10:10;;;;;;;8.05;2.50;;;;;;;7.51;67.32;101486.06;5130294;27;20047;-59
2022/01/28 01:12:43;;;;;;;10.95;3.00;;;;;;;7.54;68.15;101496.66;5133113;27;20488;-59
2022/01/28 01:15:17;;;;;;;6.40;2.08;;;;;;;7.52;68.24;101493.31;5119415;27;20048;-59
2022/01/28 01:17:54;;;;;;;4.70;1.63;;;;;;;7.39;68.44;101502.94;5111684;28;20048;-59
2022/01/28 01:20:40;;;;;;;6.10;2.20;;;;;;;7.27;68.72;101503.13;5092281;28;20043;-61
2022/01/28 01:23:10;;;;;;;11.63;2.22;;;;;;;7.08;70.06;101507.44;5106286;28;20054;-60
2022/01/28 01:25:48;;;;;;;6.85;2.42;;;;;;;7.08;69.23;101505.50;5132861;28;20055;-61
2022/01/28 01:28:21;;;;;;;9.15;2.67;;;;;;;6.81;69.36;101508.31;5130257;28;20051;-60
2022/01/28 01:30:51;;;;;;;11.82;2.42;;;;;;;6.83;70.32;101513.59;5110973;28;20047;-60
2022/01/28 01:33:20;;;;;;;9.73;3.05;;;;;;;6.70;71.47;101507.41;5111816;28;20056;-59
2022/01/28 01:35:47;;;;;;;8.30;2.80;;;;;;;6.85;70.62;101508.63;5112024;28;20047;-61
2022/01/28 01:38:15;;;;;;;12.23;3.25;;;;;;;6.88;71.24;101502.56;5112710;28;20052;-61
2022/01/28 01:40:44;;;;;;;8.15;2.58;;;;;;;6.88;70.74;101505.31;5113512;28;20048;-60
2022/01/28 01:43:16;;;;;;;7.55;2.80;;;;;;;6.86;71.51;101502.81;5112838;28;20052;-61
2022/01/28 01:54:04;;;;;;;13.07;3.10;;;;;;;6.74;71.38;101498.53;5120959;27;20054;-57
2022/01/28 01:56:33;;;;;;;16.20;3.13;;;;;;;6.78;71.29;101502.47;5136699;27;20054;-59
2022/01/28 01:59:01;;;;;;;13.52;2.67;;;;;;;6.78;71.05;101494.97;5122165;27;20408;-61
2022/01/28 02:01:29;;;;;;;11.10;2.75;;;;;;;6.76;70.30;101488.91;5120543;27;20057;-61
2022/01/28 02:03:58;;;;;;;13.02;2.88;;;;;;;6.82;70.88;101487.81;5110365;28;20439;-61
2022/01/28 02:06:28;;;;;;;14.45;3.17;;;;;;;6.77;70.71;101496.09;5095133;28;20048;-60
2022/01/28 02:08:56;;;;;;;14.50;2.65;;;;;;;6.62;70.94;101504.28;5106214;28;20083;-61
2022/01/28 02:11:23;;;;;;;9.40;2.30;;;;;;;6.63;70.93;101506.75;5095292;28;20063;-61
2022/01/28 02:13:52;;;;;;;14.25;3.00;;;;;;;6.66;71.15;101505.41;5092676;28;20424;-60
2022/01/28 02:16:20;;;;;;;8.02;2.05;;;;;;;6.48;71.09;101506.63;5093238;28;20063;-60
2022/01/28 02:18:50;;;;;;;10.88;2.53;;;;;;;6.58;71.16;101511.44;5092122;28;20056;-61
2022/01/28 02:21:19;;;;;;;8.75;2.58;;;;;;;6.49;70.88;101519.38;5089565;28;20440;-59
2022/01/28 02:23:51;;;;;;;11.02;2.70;;;;;;;6.59;71.02;101518.63;5093376;28;20052;-60
2022/01/28 02:26:19;;;;;;;9.15;2.35;;;;;;;6.68;70.52;101522.59;5089627;28;20478;-60
2022/01/28 02:28:54;;;;;;;18.17;3.22;;;;;;;6.71;70.65;101522.06;5095294;28;20052;-60
2022/01/28 02:31:24;;;;;;;13.68;2.47;;;;;;;6.75;69.87;101522.38;5100340;28;20051;-60
2022/01/28 02:33:55;;;;;;;9.77;2.80;;;;;;;6.79;69.80;101529.06;5094796;28;20059;-59
2022/01/28 02:36:25;;;;;;;7.90;2.72;;;;;;;6.77;69.86;101534.03;5089461;28;20063;-58
2022/01/28 02:38:53;;;;;;;14.32;3.13;;;;;;;6.70;70.29;101539.78;5092850;28;20052;-60
2022/01/28 02:41:22;;;;;;;10.52;3.38;;;;;;;6.68;69.33;101559.44;5088861;28;20048;-59
2022/01/28 02:44:03;;;;;;;12.50;2.87;;;;;;;6.56;69.66;101569.81;5102753;28;20507;-60
2022/01/28 02:46:33;;;;;;;9.35;3.10;;;;;;;6.62;69.99;101581.78;5087835;28;20478;-58
2022/01/28 02:49:07;;;;;;;11.88;3.15;;;;;;;6.63;70.58;101586.22;5088664;28;20048;-61
2022/01/28 02:51:36;;;;;;;11.50;3.45;;;;;;;6.49;69.93;101583.88;5084438;28;20389;-61
2022/01/28 02:54:13;;;;;;;10.57;3.10;;;;;;;6.55;70.53;101583.91;5094363;28;20052;-61
2022/01/28 02:56:50;;;;;;;13.20;2.85;;;;;;;6.67;70.28;101584.59;5086179;28;20059;-59
2022/01/28 02:59:18;;;;;;;10.32;3.20;;;;;;;6.63;69.67;101586.22;5094011;28;20052;-60
2022/01/28 03:01:45;;;;;;;13.70;3.15;;;;;;;6.70;69.62;101597.94;5116695;27;20066;-59
2022/01/28 03:04:28;;;;;;;11.88;3.40;;;;;;;6.75;69.67;101597.97;5133998;27;20407;-58
2022/01/28 03:06:57;;;;;;;10.45;2.67;;;;;;;6.80;70.06;101600.78;5135106;27;20047;-59
2022/01/28 03:09:37;;;;;;;7.93;3.05;;;;;;;6.71;69.97;101605.13;5113330;28;20052;-56
2022/01/28 03:12:14;;;;;;;13.65;2.88;;;;;;;6.68;70.36;101613.97;5114235;28;20054;-60
2022/01/28 03:14:58;;;;;;;7.50;2.50;;;;;;;6.60;70.39;101612.50;5113456;28;20062;-60
2022/01/28 03:17:51;;;;;;;13.63;2.90;;;;;;;6.59;71.05;101619.09;5117139;27;20047;-59
2022/01/28 03:20:35;;;;;;;9.77;3.38;;;;;;;6.61;70.17;101621.63;5128072;27;20058;-60
2022/01/28 03:23:04;;;;;;;10.55;3.08;;;;;;;6.62;70.66;101620.53;5123367;27;20048;-60
2022/01/28 03:25:34;;;;;;;15.15;3.95;;;;;;;6.63;70.19;101627.75;5114411;28;20047;-59
2022/01/28 03:28:04;;;;;;;12.48;4.03;;;;;;;6.57;70.27;101623.25;5104169;28;20047;-58
2022/01/28 03:30:32;;;;;;;11.85;3.85;;;;;;;6.57;70.67;101621.28;5114407;28;20059;-59
2022/01/28 03:32:59;;;;;;;15.32;4.40;;;;;;;6.47;69.68;101618.44;5106439;28;20059;-60
2022/01/28 03:35:27;;;;;;;14.05;3.88;;;;;;;6.53;70.61;101617.41;5112621;28;20051;-61
2022/01/28 03:37:59;;;;;;;10.85;3.78;;;;;;;6.50;70.66;101617.91;5134138;27;20381;-61
2022/01/28 03:40:31;;;;;;;9.40;3.30;;;;;;;6.49;70.25;101614.31;5134191;27;20047;-61
2022/01/28 03:42:58;;;;;;;16.90;4.25;;;;;;;6.56;70.74;101613.28;5125343;27;20048;-61
2022/01/28 03:45:27;;;;;;;11.05;3.13;;;;;;;6.66;70.37;101607.84;5122266;27;20047;-61
2022/01/28 03:47:55;;;;;;;13.67;2.80;;;;;;;6.71;69.49;101617.03;5134718;27;20063;-61
2022/01/28 03:50:22;;;;;;;10.57;2.85;;;;;;;6.56;70.59;101627.13;5133882;27;20472;-61
2022/01/28 03:52:49;;;;;;;13.73;2.70;;;;;;;6.64;69.91;101635.78;5093696;28;20052;-60
2022/01/28 03:55:17;;;;;;;12.82;3.28;;;;;;;6.75;69.37;101658.88;5093035;28;20056;-60
2022/01/28 03:57:45;;;;;;;12.20;3.40;;;;;;;6.71;69.93;101661.34;5104181;28;20059;-60
2022/01/28 04:00:14;;;;;;;6.07;2.58;;;;;;;6.75;70.44;101672.72;5114352;27;20051;-60
2022/01/28 04:02:42;;;;;;;9.07;2.42;;;;;;;6.72;70.08;101673.28;5124548;27;20044;-60
2022/01/28 04:13:25;;;;;;;10.10;3.00;;;;;;;6.68;71.36;101710.88;5082568;27;20056;-59
2022/01/28 04:16:15;;;;;;;10.82;3.05;;;;;;;6.63;71.56;101714.38;5113959;27;20047;-55
2022/01/28 04:18:40;;;;;;;7.85;2.60;;;;;;;6.56;72.38;101711.00;5105410;28;20063;-55
2022/01/28 04:21:07;;;;;;;16.25;3.42;;;;;;;6.64;71.32;101718.03;5113283;28;20055;-60
2022/01/28 04:23:35;;;;;;;11.98;2.90;;;;;;;6.63;70.78;101719.09;5112422;28;20055;-61
2022/01/28 04:26:02;;;;;;;11.18;2.97;;;;;;;6.45;71.37;101723.84;5113671;27;20059;-61
2022/01/28 04:28:31;;;;;;;10.88;3.10;;;;;;;6.55;71.07;101730.63;5112859;28;20506;-61
2022/01/28 04:30:59;;;;;;;11.80;3.30;;;;;;;6.49;70.77;101736.09;5112910;28;20048;-62
2022/01/28 04:33:26;;;;;;;8.63;3.10;;;;;;;6.48;71.13;101741.88;5112945;28;20044;-61
2022/01/28 04:35:55;;;;;;;10.77;3.10;;;;;;;6.47;71.01;101754.06;5122312;27;20051;-61
2022/01/28 04:38:31;;;;;;;13.00;3.57;;;;;;;6.40;71.02;101759.75;5129154;27;20051;-62
2022/01/28 04:41:07;;;;;;;10.45;3.30;;;;;;;6.30;71.00;101748.56;5112615;28;20472;-61
2022/01/28 04:43:40;;;;;;;12.75;3.47;;;;;;;6.37;71.54;101754.75;5116122;27;20044;-61
2022/01/28 04:46:16;;;;;;;16.42;3.78;;;;;;;6.29;71.88;101757.94;5112936;28;20051;-61
2022/01/28 04:48:50;;;;;;;13.70;3.65;;;;;;;6.34;71.39;101748.88;5112620;28;20059;-61
2022/01/28 04:51:29;;;;;;;12.98;3.40;;;;;;;6.35;71.48;101745.84;5111752;28;20055;-62
2022/01/28 04:54:06;;;;;;;16.48;3.42;;;;;;;6.29;71.56;101757.94;5111614;28;20054;-61
2022/01/28 04:56:56;;;;;;;11.73;3.13;;;;;;;6.34;70.97;101760.78;5111664;28;20074;-61
2022/01/28 04:59:38;;;;;;;13.43;3.05;;;;;;;6.38;70.46;101741.72;5112418;28;20056;-61
2022/01/28 05:10:45;;;;;;;15.73;3.78;;;;;;;6.44;70.02;101744.31;5097154;28;20059;-61
2022/01/28 05:24:38;;;;;;;12.38;3.28;;;;;;;6.46;70.69;101764.25;5083402;28;20051;-62
2022/01/28 05:27:09;;;;;;;14.98;2.83;;;;;;;6.53;71.76;101753.03;5112065;28;20058;-61
2022/01/28 05:29:39;;;;;;;13.40;2.97;;;;;;;6.58;70.71;101760.56;5106897;28;20055;-62
2022/01/28 05:32:09;;;;;;;14.38;2.90;;;;;;;6.57;71.67;101764.41;5112193;28;20405;-62
2022/01/28 05:34:36;;;;;;;13.55;3.25;;;;;;;6.63;71.03;101767.00;5111706;28;20059;-62
2022/01/28 05:37:05;;;;;;;16.80;3.35;;;;;;;6.63;71.81;101768.94;5110105;28;20059;-61
2022/01/28 05:39:32;;;;;;;21.98;5.03;;;;;;;6.41;71.27;101766.16;5096264;28;20058;-61
2022/01/28 05:42:00;;;;;;;10.40;2.95;;;;;;;6.52;71.25;101775.44;5095196;28;20048;-61
2022/01/28 05:44:28;;;;;;;11.52;3.15;;;;;;;6.55;71.38;101772.13;5091682;28;20048;-61
2022/01/28 05:46:56;;;;;;;10.95;3.78;;;;;;;6.50;71.34;101762.66;5093080;28;20067;-61
2022/01/28 05:49:25;;;;;;;13.32;3.30;;;;;;;6.53;70.97;101775.19;5107920;28;20495;-61
2022/01/28 05:51:53;;;;;;;9.23;3.03;;;;;;;6.58;69.84;101772.47;5092658;28;20447;-61
2022/01/28 05:54:20;;;;;;;11.43;2.80;;;;;;;6.49;70.84;101785.91;5105316;28;20527;-61
2022/01/28 05:56:50;;;;;;;15.00;3.25;;;;;;;6.43;70.37;101792.47;5103138;28;20051;-61
2022/01/28 05:59:19;;;;;;;12.90;2.97;;;;;;;6.42;70.96;101801.84;5093249;28;20071;-61
2022/01/28 06:01:46;;;;;;;13.10;3.30;;;;;;;6.44;70.71;101798.84;5101983;28;20062;-61
2022/01/28 06:04:15;;;;;;;16.70;3.50;;;;;;;6.39;70.19;101798.78;5097742;28;20052;-61
2022/01/28 06:06:44;;;;;;;11.25;3.30;;;;;;;6.36;70.73;101811.16;5092532;28;20055;-61
2022/01/28 06:09:11;;;;;;;15.77;3.83;;;;;;;6.39;70.67;101835.56;5090725;28;20427;-61
2022/01/28 06:11:39;;;;;;;8.88;2.90;;;;;;;6.42;71.04;101839.75;5091977;28;20044;-61
2022/01/28 06:14:07;;;;;;;13.38;3.40;;;;;;;6.31;71.05;101849.84;5090200;28;20047;-61
2022/01/28 06:16:34;;;;;;;15.13;3.13;;;;;;;6.34;71.34;101843.81;5089850;28;20052;-61
2022/01/28 06:19:02;;;;;;;11.90;3.25;;;;;;;6.47;70.04;101854.53;5091191;28;20485;-61
2022/01/28 06:21:29;;;;;;;12.27;3.03;;;;;;;6.45;70.14;101872.50;5091047;28;20399;-61
2022/01/28 06:23:58;;;;;;;12.32;3.00;;;;;;;6.47;69.99;101871.13;5091734;28;20048;-62
2022/01/28 06:26:25;;;;;;;13.80;3.40;;;;;;;6.44;70.65;101877.16;5102820;28;20048;-61
2022/01/28 06:28:53;;;;;;;11.27;3.20;;;;;;;6.35;70.76;101875.09;5090047;28;20056;-61
2022/01/28 06:31:20;;;;;;;8.65;2.33;;;;;;;6.37;71.01;101882.03;5090319;28;20358;-60
2022/01/28 06:33:48;;;;;;;9.73;2.67;;;;;;;6.48;70.97;101872.81;5090838;28;20048;-61
2022/01/28 06:36:15;;;;;;;8.68;2.92;;;;;;;6.53;70.34;101871.19;5101288;28;20048;-60
2022/01/28 06:38:43;;;;;;;12.13;3.03;;;;;;;6.57;69.95;101873.22;5090078;28;20515;-61
2022/01/28 06:41:11;;;;;;;11.10;3.20;;;;;;;6.43;69.94;101867.19;5094209;28;20397;-61
2022/01/28 06:43:39;;;;;;;13.07;2.88;;;;;;;6.42;69.95;101876.56;5093343;28;20040;-61
2022/01/28 06:46:06;;;;;;;10.98;2.85;;;;;;;6.53;69.50;101871.19;5092711;28;20056;-59
2022/01/28 06:48:34;;;;;;;10.35;2.50;;;;;;;6.49;69.92;101874.50;5096503;28;20048;-61
2022/01/28 06:51:01;;;;;;;12.30;3.05;;;;;;;6.52;69.54;101877.84;5094161;28;20063;-61
2022/01/28 06:53:28;;;;;;;13.77;3.28;;;;;;;6.54;70.14;101882.03;5093861;28;20048;-61
2022/01/28 06:55:55;;;;;;;13.68;4.20;;;;;;;6.55;69.19;101878.19;5093963;28;20059;-61
2022/01/28 06:58:24;;;;;;;10.25;3.13;;;;;;;6.50;69.39;101880.84;5093514;28;20048;-61
2022/01/28 07:00:52;;;;;;;9.18;2.70;;;;;;;6.48;69.18;101878.34;5092507;28;20056;-61
2022/01/28 07:03:19;;;;;;;12.77;3.40;;;;;;;6.32;69.37;101884.75;5094026;28;20044;-59
2022/01/28 07:05:46;;;;;;;13.10;3.40;;;;;;;6.39;69.91;101893.69;5094133;28;20044;-61
2022/01/28 07:08:14;;;;;;;12.85;3.35;;;;;;;6.27;69.70;101901.22;5093430;28;20048;-58
2022/01/28 07:10:41;;;;;;;11.05;2.90;;;;;;;6.40;69.98;101902.81;5093364;28;20052;-58
2022/01/28 07:13:08;;;;;;;7.75;2.72;;;;;;;6.50;69.20;101925.97;5093806;28;20408;-60
2022/01/28 07:15:39;;;;;;;13.20;3.45;;;;;;;6.45;69.08;101922.31;5093827;28;20079;-61
2022/01/28 07:18:06;;;;;;;11.10;2.50;;;;;;;6.39;69.45;101920.53;5092923;28;20429;-60
2022/01/28 07:20:34;;;;;;;10.55;2.95;;;;;;;6.41;69.56;101921.13;5093571;28;20489;-61
2022/01/28 07:23:02;;;;;;;12.25;3.03;;;;;;;6.43;69.10;101925.31;5092361;28;20056;-57
2022/01/28 07:25:30;;;;;;;10.68;2.60;;;;;;;6.40;70.30;101923.03;5093830;28;20056;-56
2022/01/28 07:27:58;;;;;;;11.45;3.35;;;;;;;6.49;69.76;101931.78;5094360;28;20504;-61
2022/01/28 07:30:25;;;;;;;9.82;3.30;;;;;;;6.53;69.03;101932.97;5093520;28;20052;-60
2022/01/28 07:32:54;;;;;;;8.15;2.47;;;;;;;6.54;68.84;101934.63;5093563;28;20056;-61
2022/01/28 07:35:21;;;;;;;10.20;2.72;;;;;;;6.50;68.54;101939.00;5093418;28;20063;-59
2022/01/28 07:37:49;;;;;;;10.00;3.13;;;;;;;6.50;68.67;101934.28;5092971;28;20420;-59
2022/01/28 07:40:16;;;;;;;8.90;3.33;;;;;;;6.47;68.94;101947.81;5092831;28;20101;-60
2022/01/28 07:42:46;;;;;;;9.45;2.75;;;;;;;6.52;68.37;101935.97;5092778;28;20059;-58
2022/01/28 07:45:15;;;;;;;12.68;3.42;;;;;;;6.55;68.85;101939.09;5092374;28;20051;-62
2022/01/28 07:47:42;;;;;;;12.93;4.05;;;;;;;6.53;68.45;101934.88;5097054;28;20074;-60
2022/01/28 07:50:13;;;;;;;11.23;3.13;;;;;;;6.14;69.95;101943.91;5094073;28;20052;-42
2022/01/28 07:52:42;;;;;;;16.88;3.55;;;;;;;5.70;71.93;101944.41;5086102;28;20052;-41
2022/01/28 07:55:12;;;;;;;11.73;3.38;;;;;;;6.19;70.82;101952.28;5088897;28;20052;-62
2022/01/28 07:57:40;;;;;;;10.15;2.80;;;;;;;6.44;69.89;101951.88;5092703;28;20090;-62
2022/01/28 08:00:09;;;;;;;10.38;3.03;;;;;;;6.57;69.58;101956.25;5106435;28;20052;-63
2022/01/28 08:02:37;;;;;;;11.82;3.55;;;;;;;6.69;68.68;101967.25;5097994;28;20060;-63
2022/01/28 08:05:07;;;;;;;12.88;2.38;;;;;;;6.82;68.31;101955.00;5103679;28;20051;-62
2022/01/28 08:07:39;;;;;;;14.20;3.72;;;;;;;6.89;68.74;101961.22;5090803;28;20063;-62
2022/01/28 08:10:07;;;;;;;13.32;3.85;;;;;;;7.04;67.85;101953.16;5090423;28;20492;-62
2022/01/28 08:12:45;;;;;;;11.38;3.40;;;;;;;7.05;67.63;101960.34;5104597;28;20431;-63
2022/01/28 08:15:12;;;;;;;11.55;3.65;;;;;;;7.17;67.14;101957.47;5102486;28;20062;-63
2022/01/28 08:17:40;;;;;;;10.23;3.75;;;;;;;7.29;67.50;101974.00;5092003;28;20055;-62
2022/01/28 08:20:09;;;;;;;13.75;3.78;;;;;;;7.35;67.02;101974.91;5088408;28;20412;-63
2022/01/28 08:22:45;;;;;;;14.00;4.00;;;;;;;7.22;67.51;101973.34;5099732;28;20047;-63
2022/01/28 08:25:13;;;;;;;18.35;4.25;;;;;;;7.32;67.39;101973.50;5097725;28;20052;-63
2022/01/28 08:27:42;;;;;;;16.02;4.63;;;;;;;7.30;67.35;101970.13;5090968;28;20051;-63
2022/01/28 08:30:10;;;;;;;12.18;3.97;;;;;;;7.42;66.85;101970.03;5105873;28;20063;-62
2022/01/28 08:32:38;;;;;;;11.75;3.75;;;;;;;7.48;66.37;101985.63;5090958;28;20804;-62
2022/01/28 08:35:06;;;;;;;14.85;3.95;;;;;;;7.47;67.04;101979.22;5075566;28;20039;-62
2022/01/28 08:37:34;;;;;;;16.17;3.95;;;;;;;7.58;66.18;101980.25;5095661;28;20071;-62
2022/01/28 08:40:04;;;;;;;11.40;3.80;;;;;;;7.70;65.71;101991.19;5092213;28;20058;-63
2022/01/28 08:42:31;;;;;;;13.52;4.13;;;;;;;7.80;65.23;101994.09;5094539;28;20189;-61
2022/01/28 08:44:59;;;;;;;7.63;3.60;;;;;;;7.76;65.33;102004.03;5111468;28;20047;-63
2022/01/28 08:47:26;;;;;;;16.35;4.38;;;;;;;7.91;64.53;102006.97;5091408;28;20059;-63
2022/01/28 08:49:53;;;;;;;9.23;3.58;;;;;;;7.82;64.79;102004.94;5088163;28;20063;-63
2022/01/28 08:52:21;;;;;;;10.40;4.30;;;;;;;7.84;65.12;102006.34;5083032;28;20492;-63
2022/01/28 08:54:49;;;;;;;16.13;3.75;;;;;;;7.94;64.83;102008.41;5088058;28;20064;-62
2022/01/28 08:57:18;;;;;;;12.50;3.65;;;;;;;8.10;64.28;102013.03;5087947;28;20056;-63
2022/01/28 08:59:45;;;;;;;12.55;3.40;;;;;;;8.19;64.31;102009.78;5078471;28;20062;-62
2022/01/28 09:02:12;;;;;;;11.10;4.18;;;;;;;8.39;63.77;102015.56;5091733;28;20055;-62
2022/01/28 09:04:40;;;;;;;9.35;2.92;;;;;;;8.60;63.35;102016.66;5108778;28;20043;-64
2022/01/28 09:07:07;;;;;;;15.05;4.00;;;;;;;8.86;62.09;102017.72;5110319;28;20403;-63
2022/01/28 09:09:35;;;;;;;11.05;3.17;;;;;;;10.25;58.95;102019.34;5109164;28;20056;-62
2022/01/28 09:12:19;;;;;;;14.43;3.40;;;;;;;10.27;58.81;102017.13;5109157;28;20060;-63
2022/01/28 09:14:47;;;;;;;10.88;3.00;;;;;;;10.13;58.85;102010.38;5104707;28;20047;-63
2022/01/28 09:17:14;;;;;;;11.57;3.22;;;;;;;9.84;58.85;102021.13;5108362;28;20062;-62
2022/01/28 09:19:43;;;;;;;15.48;3.50;;;;;;;9.69;58.72;102024.69;5109129;28;20051;-63
2022/01/28 09:22:11;;;;;;;10.10;3.37;;;;;;;9.65;58.96;102029.94;5104966;28;20056;-63
2022/01/28 09:24:38;;;;;;;12.30;3.47;;;;;;;10.74;56.58;102029.19;5109605;28;20469;-63
2022/01/28 09:27:06;;;;;;;12.15;3.50;;;;;;;12.97;51.32;102029.81;5107773;28;20047;-63
2022/01/28 09:29:34;;;;;;;11.07;3.53;;;;;;;14.92;45.62;102021.84;5109395;28;20066;-63
2022/01/28 09:32:03;;;;;;;14.20;3.83;;;;;;;14.07;47.24;102018.03;5109794;28;20051;-63
2022/01/28 09:34:31;;;;;;;9.45;3.47;;;;;;;14.55;45.47;102027.22;5107698;28;20158;-63
2022/01/28 09:36:58;;;;;;;15.05;3.78;;;;;;;15.66;42.93;102030.34;5109670;28;20051;-63
2022/01/28 09:39:26;;;;;;;9.77;3.33;;;;;;;15.36;43.55;102026.97;5110058;28;20056;-64
2022/01/28 09:42:00;;;;;;;8.48;3.05;;;;;;;16.48;40.90;102025.81;5102818;28;20047;-63
2022/01/28 09:44:29;;;;;;;13.43;3.15;;;;;;;16.46;40.28;102033.72;5109852;28;20058;-63
2022/01/28 09:46:58;;;;;;;;;;;;;;;17.87;38.01;102025.97;5115427;28;20408;-63
2022/01/28 09:49:27;;;;;;;11.05;2.90;;;;;;;18.07;37.20;102020.88;5110227;28;19935;-64
2022/01/28 09:51:57;;;;;;;12.73;3.70;;;;;;;17.95;37.94;102019.50;5108410;28;20051;-64
2022/01/28 09:54:24;;;;;;;13.15;3.58;;;;;;;18.49;36.06;102019.28;5109586;28;20056;-63
2022/01/28 09:56:52;;;;;;;12.57;3.70;;;;;;;20.61;32.96;102008.63;5108104;28;20059;-64
2022/01/28 09:59:19;;;;;;;9.88;3.40;;;;;;;22.50;29.19;102019.22;5109550;28;20065;-64
2022/01/28 10:01:50;;;;;;;10.00;3.30;;;;;;;24.04;26.68;102017.84;5108278;28;20507;-63
2022/01/28 10:04:19;;;;;;;10.43;3.35;;;;;;;24.70;25.46;102027.50;5109671;28;20047;-63
2022/01/28 10:06:49;;;;;;;10.10;3.40;;;;;;;25.74;24.55;102023.00;5109509;28;20056;-63
2022/01/28 10:09:19;;;;;;;10.85;3.08;;;;;;;26.30;23.57;102028.00;5109757;28;20058;-64
2022/01/28 10:11:50;;;;;;;9.32;3.20;;;;;;;26.85;22.75;102021.84;5108459;28;20051;-64
2022/01/28 10:14:20;;;;;;;9.52;3.15;;;;;;;26.35;22.87;102017.47;5110437;28;20047;-64
2022/01/28 10:16:55;;;;;;;8.98;3.53;;;;;;;27.94;20.64;102016.88;5106021;28;20043;-63
2022/01/28 10:19:25;;;;;;;8.25;2.83;;;;;;;28.46;20.72;102030.34;5110881;28;20059;-63
2022/01/28 10:21:55;;;;;;;9.88;3.22;;;;;;;28.05;20.16;102021.88;5114052;28;20054;-63
2022/01/28 10:24:23;;;;;;;9.85;3.20;;;;;;;28.18;20.24;102020.34;5113375;28;20052;-64
2022/01/28 10:26:52;;;;;;;7.28;2.97;;;;;;;27.69;21.38;102021.53;5113953;28;20047;-64
2022/01/28 10:29:23;;;;;;;8.55;3.03;;;;;;;28.82;19.70;102027.69;5113080;28;20408;-64
2022/01/28 10:31:56;;;;;;;14.43;7.65;;;;;;;26.15;21.53;102031.88;5110811;27;20067;-64
2022/01/28 10:34:29;;;;;;;14.05;6.65;;;;;;;25.23;23.02;102026.97;5112636;28;20039;-64
2022/01/28 10:37:17;;;;;;;12.30;3.65;;;;;;;26.85;21.26;102024.72;5112515;28;20059;-63
2022/01/28 10:39:47;;;;;;;8.40;3.35;;;;;;;26.48;21.29;102031.16;5111564;28;20493;-64
2022/01/28 10:42:16;;;;;;;9.23;3.58;;;;;;;25.65;22.21;102028.16;5111347;28;20043;-64
2022/01/28 10:44:56;;;;;;;9.95;3.13;;;;;;;23.68;24.61;102030.28;5111186;28;20043;-64
2022/01/28 10:47:32;;;;;;;10.63;3.67;;;;;;;21.62;26.42;102036.63;5113674;27;20519;-63
2022/01/28 10:50:00;;;;;;;10.82;3.33;;;;;;;20.49;27.68;102040.47;5113243;28;20059;-63
2022/01/28 10:52:35;;;;;;;12.07;3.08;;;;;;;19.80;29.37;102048.22;5104298;27;20746;-64
2022/01/28 10:55:03;;;;;;;12.07;3.15;;;;;;;19.28;30.77;102048.34;5105800;28;20432;-63
2022/01/28 10:57:31;;;;;;;11.77;3.03;;;;;;;18.66;31.16;102047.50;5110769;28;20444;-63
2022/01/28 10:59:59;;;;;;;9.60;3.03;;;;;;;17.81;32.39;102050.59;5110475;28;20056;-63
2022/01/28 11:02:27;;;;;;;9.15;2.97;;;;;;;17.56;32.23;102056.94;5111726;28;20501;-63
2022/01/28 11:04:57;;;;;;;10.90;3.28;;;;;;;17.23;32.69;102054.44;5113049;28;20046;-63
2022/01/28 11:07:28;;;;;;;10.55;3.50;;;;;;;16.53;33.91;102042.59;5111902;28;20048;-62
2022/01/28 11:09:56;;;;;;;8.07;2.67;;;;;;;15.75;34.70;102055.78;5111708;28;20055;-63
2022/01/28 11:12:25;;;;;;;7.50;2.65;;;;;;;15.32;35.98;102055.97;5112444;28;20065;-63
2022/01/28 11:14:52;;;;;;;12.43;3.17;;;;;;;14.58;37.42;102045.38;5112817;27;20499;-63
2022/01/28 11:17:19;;;;;;;8.68;2.85;;;;;;;14.26;37.95;102051.69;5110834;28;20047;-63
2022/01/28 11:19:49;;;;;;;8.20;2.83;;;;;;;14.25;38.24;102048.06;5111504;27;20495;-63
2022/01/28 11:22:39;;;;;;;;;;;;;;;14.17;39.15;102048.72;5111936;28;20052;-63
2022/01/28 11:25:36;;;;;;;10.95;2.90;;;;;;;13.92;38.32;102055.47;5105107;28;20360;-63
2022/01/28 11:28:09;;;;;;;12.13;3.28;;;;;;;13.81;38.29;102060.34;5107678;27;20052;-62
2022/01/28 11:30:37;;;;;;;13.25;3.20;;;;;;;13.61;39.10;102064.22;5108434;28;20067;-63
2022/01/28 11:33:07;;;;;;;12.20;3.35;;;;;;;13.60;39.39;102062.56;5123999;27;20074;-63
2022/01/28 11:35:38;;;;;;;13.13;3.88;;;;;;;13.64;38.57;102055.22;5116202;27;20051;-63
2022/01/28 11:38:36;;;;;;;13.27;2.97;;;;;;;19.23;30.39;102040.03;5115070;27;20055;-62
2022/01/28 11:41:13;;;;;;;11.23;3.47;;;;;;;22.34;25.87;102032.50;5111621;27;20059;-63
2022/01/28 11:43:51;;;;;;;11.77;3.67;;;;;;;24.80;23.56;102033.78;5105772;28;20446;-62
2022/01/28 11:46:27;;;;;;;11.35;3.40;;;;;;;25.83;21.34;102019.88;5111066;28;20054;-62
2022/01/28 11:49:10;;;;;;;10.77;3.75;;;;;;;21.96;25.16;102034.50;5111361;28;20051;-63
2022/01/28 11:51:42;;;;;;;14.77;3.60;;;;;;;20.10;27.12;102034.09;5086421;28;20048;-63
2022/01/28 11:54:11;;;;;;;12.75;3.42;;;;;;;19.01;28.11;102035.41;5104494;28;20065;-62
2022/01/28 11:56:41;;;;;;;11.73;3.25;;;;;;;17.99;29.86;102042.22;5105756;28;20051;-62
2022/01/28 11:59:09;;;;;;;12.85;3.42;;;;;;;17.07;30.79;102042.72;5110989;28;20056;-64
2022/01/28 12:02:15;;;;;;;10.63;3.27;;;;;;;16.36;31.84;102040.44;5110241;28;20062;-63
2022/01/28 12:04:44;;;;;;;10.98;3.60;;;;;;;20.26;27.52;102032.31;5091783;28;20397;-64
2022/01/28 12:07:15;;;;;;;9.82;3.38;;;;;;;24.40;22.11;102021.53;5091306;28;20044;-63
2022/01/28 12:09:45;;;;;;;11.75;2.90;;;;;;;26.01;20.58;102008.78;5086236;28;20051;-62
2022/01/28 12:12:19;;;;;;;12.13;3.20;;;;;;;25.85;20.60;102001.19;5088461;28;20060;-62
2022/01/28 12:15:01;;;;;;;11.43;2.85;;;;;;;27.46;19.26;101993.94;5090735;28;20500;-63
2022/01/28 12:17:42;;;;;;;9.30;3.35;;;;;;;29.24;17.37;101998.31;5084586;28;20044;-62
2022/01/28 12:20:12;;;;;;;10.82;3.92;;;;;;;29.98;16.91;101995.09;5089503;28;20058;-63
2022/01/28 12:23:21;;;;;;;9.10;3.65;;;;;;;30.42;16.00;101985.19;5078032;28;20052;-63
2022/01/28 12:25:50;;;;;;;9.60;3.05;;;;;;;27.76;18.41;101997.88;5038953;28;20060;-63
2022/01/28 12:28:21;;;;;;;9.95;3.08;;;;;;;30.20;15.93;101987.25;5090620;28;20044;-63
2022/01/28 12:30:49;;;;;;;8.98;3.42;;;;;;;31.02;15.28;101984.13;5090664;28;20048;-63
2022/01/28 12:33:23;;;;;;;11.63;3.35;;;;;;;31.64;14.33;101987.41;5091036;28;20489;-63
2022/01/28 12:35:53;;;;;;;9.07;3.00;;;;;;;31.73;14.43;101981.97;5090466;28;20405;-63
2022/01/28 12:38:24;;;;;;;7.82;3.17;;;;;;;31.98;13.90;101986.69;5090898;28;20409;-63